Time;durP1;ratioP1;P1;durP2;ratioP2;P2;SDS_P1;SDS_P2;PMS_P1;PMS_P2;Temp;Humidity;BMP_temperature;BMP_pressure;BME280_temperature;BME280_humidity;BME280_pressure;Samples;Min_cycle;Max_cycle;Signal;HPM_P1;HPM_P2
2024/04/25 00:01:10;;;;;;;7.30;0.95;;;4.30;99.90;;;;;;5354176;26;20011;-71
2024/04/25 00:03:36;;;;;;;8.35;0.63;;;4.40;99.90;;;;;;5359337;26;20000;-70
2024/04/25 00:06:02;;;;;;;5.70;0.70;;;4.50;99.90;;;;;;5362513;26;20012;-71
2024/04/25 00:08:27;;;;;;;8.88;1.20;;;4.60;99.90;;;;;;5359830;26;20070;-72
2024/04/25 00:10:53;;;;;;;4.38;0.95;;;4.70;99.90;;;;;;5368763;26;20008;-73
2024/04/25 00:13:26;;;;;;;2.88;0.73;;;4.80;99.90;;;;;;5353947;26;20033;-70
2024/04/25 00:15:53;;;;;;;7.30;0.95;;;5.00;99.90;;;;;;5357054;26;20077;-71
2024/04/25 00:18:18;;;;;;;7.90;0.95;;;5.00;99.90;;;;;;5327286;26;20001;-69
2024/04/25 00:20:44;;;;;;;7.90;0.80;;;5.00;99.90;;;;;;5349683;26;20003;-72
2024/04/25 00:23:09;;;;;;;6.65;0.80;;;5.00;99.90;;;;;;5356175;26;20004;-71
2024/04/25 00:25:35;;;;;;;9.45;0.88;;;5.00;99.90;;;;;;5355146;26;20089;-71
2024/04/25 00:28:00;;;;;;;3.88;0.50;;;5.10;99.90;;;;;;5362238;26;20006;-70
2024/04/25 00:30:26;;;;;;;4.82;0.98;;;5.00;99.90;;;;;;5362166;26;19993;-69
2024/04/25 00:32:52;;;;;;;2.85;0.35;;;5.00;99.90;;;;;;5353961;26;20134;-72
2024/04/25 00:35:18;;;;;;;2.83;0.43;;;5.00;99.90;;;;;;5358449;26;20017;-70
2024/04/25 00:37:43;;;;;;;1.90;0.32;;;5.00;99.90;;;;;;5357130;26;20043;-68
2024/04/25 00:40:09;;;;;;;8.60;0.60;;;5.00;99.90;;;;;;5332437;26;19997;-72
2024/04/25 00:42:36;;;;;;;1.38;0.40;;;5.00;99.90;;;;;;5358284;26;20355;-70
2024/04/25 00:45:02;;;;;;;5.00;0.45;;;5.00;99.90;;;;;;5366126;26;20052;-70
2024/04/25 00:47:29;;;;;;;2.70;0.50;;;5.00;99.90;;;;;;5367323;26;20008;-68
2024/04/25 00:49:55;;;;;;;4.75;0.50;;;5.00;99.90;;;;;;5353869;26;20049;-72
2024/04/25 00:52:22;;;;;;;4.10;0.47;;;5.00;99.90;;;;;;5357494;26;20109;-72
2024/04/25 00:54:47;;;;;;;5.63;0.32;;;5.00;99.90;;;;;;5335525;26;20004;-71
2024/04/25 00:57:14;;;;;;;2.47;1.00;;;5.00;99.90;;;;;;5325764;26;20016;-70
2024/04/25 00:59:43;;;;;;;5.10;0.30;;;5.00;99.90;;;;;;5356668;26;20004;-68
2024/04/25 01:02:09;;;;;;;6.47;0.60;;;5.00;99.90;;;;;;5355927;26;20013;-68
2024/04/25 01:04:36;;;;;;;5.20;0.30;;;5.00;99.90;;;;;;5358975;26;19997;-72
2024/04/25 01:07:06;;;;;;;2.40;0.73;;;4.90;99.90;;;;;;5358683;26;20069;-70
2024/04/25 01:09:32;;;;;;;2.25;0.20;;;4.90;99.90;;;;;;5354576;26;20016;-72
2024/04/25 01:11:58;;;;;;;4.40;0.40;;;4.80;99.90;;;;;;5322433;26;20012;-69
2024/04/25 01:14:23;;;;;;;4.45;0.40;;;4.80;99.90;;;;;;5359020;26;20011;-68
2024/04/25 01:16:49;;;;;;;3.47;0.52;;;4.70;99.90;;;;;;5354891;26;20011;-70
2024/04/25 01:19:17;;;;;;;1.48;0.30;;;4.60;99.90;;;;;;5357043;26;20009;-69
2024/04/25 01:21:43;;;;;;;1.85;0.60;;;4.60;99.90;;;;;;5344768;26;20392;-68
2024/04/25 01:24:09;;;;;;;6.57;1.58;;;4.50;99.90;;;;;;5363540;26;20106;-72
2024/04/25 01:26:36;;;;;;;4.28;0.50;;;4.40;99.90;;;;;;5351391;26;19996;-73
2024/04/25 01:29:06;;;;;;;7.07;1.77;;;4.40;99.90;;;;;;5370619;26;20449;-70
2024/04/25 01:31:32;;;;;;;5.82;0.38;;;4.30;99.90;;;;;;5356398;26;20000;-68
2024/04/25 01:33:58;;;;;;;3.65;0.35;;;4.30;99.90;;;;;;5352930;26;20024;-68
2024/04/25 01:36:24;;;;;;;2.08;0.30;;;4.30;99.90;;;;;;5321032;26;20004;-70
2024/04/25 01:38:50;;;;;;;2.33;0.22;;;4.20;99.90;;;;;;5352837;26;20501;-72
2024/04/25 01:41:15;;;;;;;1.85;0.22;;;4.30;99.90;;;;;;5369119;26;20004;-70
2024/04/25 01:43:41;;;;;;;3.88;0.30;;;4.30;99.90;;;;;;5364886;26;20004;-71
2024/04/25 01:46:07;;;;;;;6.45;0.98;;;4.30;99.90;;;;;;5352780;26;20327;-69
2024/04/25 01:48:33;;;;;;;4.05;0.45;;;4.30;99.90;;;;;;5356886;26;20071;-67
2024/04/25 01:50:59;;;;;;;2.70;0.30;;;4.30;99.90;;;;;;5353653;26;20017;-70
2024/04/25 01:53:24;;;;;;;3.03;0.30;;;4.20;99.90;;;;;;5371126;26;20004;-70
2024/04/25 01:55:50;;;;;;;4.57;1.15;;;4.20;99.90;;;;;;5358321;26;20544;-71
2024/04/25 01:58:16;;;;;;;2.65;1.20;;;4.20;99.90;;;;;;5354804;26;20004;-72
2024/04/25 02:00:41;;;;;;;2.45;0.40;;;4.20;99.90;;;;;;5363730;26;20350;-70
2024/04/25 02:03:07;;;;;;;5.25;0.57;;;4.20;99.90;;;;;;5328846;26;20008;-67
2024/04/25 02:05:32;;;;;;;1.33;0.30;;;4.20;99.90;;;;;;5357910;26;20038;-72
2024/04/25 02:07:58;;;;;;;2.03;0.80;;;4.20;99.90;;;;;;5358834;26;20388;-71
2024/04/25 02:10:23;;;;;;;6.93;0.93;;;4.20;99.90;;;;;;5350679;26;20012;-70
2024/04/25 02:12:49;;;;;;;3.97;0.50;;;4.30;99.90;;;;;;5357401;26;20044;-70
2024/04/25 02:15:14;;;;;;;2.58;0.35;;;4.30;99.90;;;;;;5353989;26;20051;-67
2024/04/25 02:17:40;;;;;;;2.75;0.85;;;4.20;99.90;;;;;;5357653;26;20004;-71
2024/04/25 02:25:37;;;;;;;1.70;0.70;;;4.20;99.90;;;;;;5354011;26;20545;-72
2024/04/25 02:28:03;;;;;;;2.53;0.35;;;4.20;99.90;;;;;;5341987;26;20012;-70
2024/04/25 02:30:28;;;;;;;3.80;1.00;;;4.20;99.90;;;;;;5357917;26;20012;-66
2024/04/25 02:32:54;;;;;;;2.58;0.55;;;4.20;99.90;;;;;;5360188;26;20297;-72
2024/04/25 02:35:19;;;;;;;2.53;0.75;;;4.20;99.90;;;;;;5353783;26;20013;-71
2024/04/25 02:37:45;;;;;;;4.32;0.55;;;4.30;99.90;;;;;;5365824;26;20001;-71
2024/04/25 02:40:10;;;;;;;2.80;0.73;;;4.30;99.90;;;;;;5337316;26;20028;-72
2024/04/25 02:42:36;;;;;;;4.18;1.20;;;4.40;99.90;;;;;;5351125;26;20000;-72
2024/04/25 02:45:01;;;;;;;4.10;0.75;;;4.40;99.90;;;;;;5365833;26;20011;-71
2024/04/25 02:47:27;;;;;;;2.33;0.50;;;4.60;99.90;;;;;;5351957;26;20005;-72
2024/04/25 02:49:52;;;;;;;5.18;0.70;;;4.50;99.90;;;;;;5354757;26;20114;-72
2024/04/25 02:52:18;;;;;;;3.50;0.75;;;4.50;99.90;;;;;;5354435;26;20013;-73
2024/04/25 02:54:43;;;;;;;3.60;1.08;;;4.50;99.90;;;;;;5367254;26;20000;-72
2024/04/25 02:57:09;;;;;;;5.65;1.00;;;4.50;99.90;;;;;;5365189;26;20438;-71
2024/04/25 02:59:35;;;;;;;6.60;0.93;;;4.50;99.90;;;;;;5323607;26;19997;-76
2024/04/25 03:02:00;;;;;;;8.25;0.63;;;4.50;99.90;;;;;;5360880;26;20000;-71
2024/04/25 03:04:26;;;;;;;5.93;1.10;;;4.50;99.90;;;;;;5351842;26;20078;-71
2024/04/25 03:06:51;;;;;;;5.15;1.13;;;4.50;99.90;;;;;;5365279;26;20014;-73
2024/04/25 03:09:17;;;;;;;10.50;1.88;;;4.40;99.90;;;;;;5351865;26;20016;-72
2024/04/25 03:11:42;;;;;;;9.90;1.67;;;4.40;99.90;;;;;;5360308;26;20015;-71
2024/04/25 03:14:08;;;;;;;6.28;0.90;;;4.40;99.90;;;;;;5360314;26;20011;-73
2024/04/25 03:16:33;;;;;;;2.35;0.88;;;4.40;99.90;;;;;;5357311;26;20041;-71
2024/04/25 03:18:59;;;;;;;8.25;0.77;;;4.40;99.90;;;;;;5346278;26;19996;-72
2024/04/25 03:21:24;;;;;;;4.45;0.77;;;4.40;99.90;;;;;;5352145;26;20078;-69
2024/04/25 03:23:50;;;;;;;3.28;0.82;;;4.40;99.90;;;;;;5347876;26;19996;-71
2024/04/25 03:26:15;;;;;;;8.65;1.17;;;4.30;99.90;;;;;;5360049;26;20016;-72
2024/04/25 03:28:41;;;;;;;4.80;0.50;;;4.30;99.90;;;;;;5354718;26;20019;-72
2024/04/25 03:31:06;;;;;;;6.18;0.90;;;4.20;99.90;;;;;;5364507;26;19992;-75
2024/04/25 03:33:32;;;;;;;1.70;0.85;;;4.20;99.90;;;;;;5356477;26;20004;-71
2024/04/25 03:35:57;;;;;;;1.55;0.50;;;4.10;99.90;;;;;;5323339;26;20019;-72
2024/04/25 03:38:23;;;;;;;6.40;0.70;;;4.10;99.90;;;;;;5321192;26;19997;-72
2024/04/25 03:40:49;;;;;;;6.10;1.02;;;4.00;99.90;;;;;;5332037;26;20007;-72
2024/04/25 03:43:14;;;;;;;5.95;1.10;;;3.90;99.90;;;;;;5358631;26;20004;-72
2024/04/25 03:45:40;;;;;;;5.88;0.85;;;3.90;99.90;;;;;;5355487;26;20028;-71
2024/04/25 03:48:06;;;;;;;2.38;0.80;;;3.90;99.90;;;;;;5354997;26;20007;-71
2024/04/25 03:50:32;;;;;;;4.95;0.80;;;4.00;99.90;;;;;;5361814;26;20085;-74
2024/04/25 03:52:58;;;;;;;8.90;2.05;;;4.00;99.90;;;;;;5348950;26;20011;-72
2024/04/25 03:55:23;;;;;;;7.55;1.38;;;4.00;99.90;;;;;;5352082;26;20473;-72
2024/04/25 03:57:49;;;;;;;3.80;0.55;;;4.00;99.90;;;;;;5355673;26;20008;-69
2024/04/25 04:00:14;;;;;;;2.78;0.93;;;4.00;99.90;;;;;;5351377;26;20472;-72
2024/04/25 04:02:40;;;;;;;3.03;1.10;;;4.00;99.90;;;;;;5355189;26;20012;-72
2024/04/25 04:05:05;;;;;;;3.20;1.33;;;4.00;99.90;;;;;;5323043;26;19996;-72
2024/04/25 04:07:31;;;;;;;12.30;1.55;;;3.90;99.90;;;;;;5362707;26;20019;-73
2024/04/25 04:09:57;;;;;;;3.42;1.30;;;3.90;99.90;;;;;;5362845;26;20016;-72
2024/04/25 04:12:23;;;;;;;8.43;0.88;;;3.90;99.90;;;;;;5349408;26;20100;-72
2024/04/25 04:14:48;;;;;;;4.32;0.90;;;3.90;99.90;;;;;;5325334;26;20349;-71
2024/04/25 04:17:14;;;;;;;2.03;0.63;;;3.90;99.90;;;;;;5355307;26;20011;-70
2024/04/25 04:19:40;;;;;;;2.60;1.25;;;4.00;99.90;;;;;;5351200;26;20024;-68
2024/04/25 04:22:05;;;;;;;1.88;0.98;;;4.00;99.90;;;;;;5352436;26;20356;-72
2024/04/25 04:24:31;;;;;;;7.28;1.33;;;4.00;99.90;;;;;;5357489;26;20001;-69
2024/04/25 04:26:56;;;;;;;7.20;0.93;;;4.10;99.90;;;;;;5358122;26;20901;-70
2024/04/25 04:29:22;;;;;;;4.72;1.23;;;4.20;99.90;;;;;;5364102;26;20001;-70
2024/04/25 04:31:48;;;;;;;5.70;1.42;;;4.20;99.90;;;;;;5352332;26;20031;-71
2024/04/25 04:34:13;;;;;;;9.90;1.52;;;4.30;99.90;;;;;;5357088;26;20004;-70
2024/04/25 04:36:39;;;;;;;4.47;1.33;;;4.40;99.90;;;;;;5360220;26;20027;-71
2024/04/25 04:39:06;;;;;;;10.75;1.67;;;4.40;99.90;;;;;;5360466;26;20001;-70
2024/04/25 04:41:32;;;;;;;6.20;0.80;;;4.50;99.90;;;;;;5358402;26;20032;-69
2024/04/25 04:44:00;;;;;;;3.67;0.90;;;4.50;99.90;;;;;;5356563;26;20013;-72
2024/04/25 04:46:26;;;;;;;3.05;0.60;;;4.50;99.90;;;;;;5353721;26;20008;-69
2024/04/25 04:48:52;;;;;;;3.03;0.50;;;4.50;99.90;;;;;;5366068;26;20000;-71
2024/04/25 04:51:20;;;;;;;3.60;0.70;;;4.60;99.90;;;;;;5351917;26;20001;-70
2024/04/25 04:53:47;;;;;;;3.50;0.45;;;4.60;99.90;;;;;;5355080;26;20011;-69
2024/04/25 04:56:13;;;;;;;1.63;0.77;;;4.60;99.90;;;;;;5370430;26;20068;-74
2024/04/25 04:58:39;;;;;;;3.67;0.70;;;4.70;99.90;;;;;;5355379;26;20001;-74
2024/04/25 05:01:05;;;;;;;13.68;1.85;;;4.70;99.90;;;;;;5366801;26;20063;-71
2024/04/25 05:03:30;;;;;;;2.03;0.63;;;4.70;99.90;;;;;;5364896;26;20007;-73
2024/04/25 05:05:56;;;;;;;4.03;1.27;;;4.70;99.90;;;;;;5368065;26;19996;-74
2024/04/25 05:08:22;;;;;;;3.05;0.40;;;4.80;99.90;;;;;;5364016;26;20519;-71
2024/04/25 05:10:48;;;;;;;3.78;0.93;;;4.80;99.90;;;;;;5333768;26;19997;-72
2024/04/25 05:13:13;;;;;;;6.95;1.13;;;4.80;99.90;;;;;;5363262;26;20403;-71
2024/04/25 05:15:39;;;;;;;11.65;1.13;;;4.90;99.90;;;;;;5364698;26;19996;-70
2024/04/25 05:18:05;;;;;;;8.40;1.00;;;4.90;99.90;;;;;;5360456;26;19999;-71
2024/04/25 05:20:31;;;;;;;3.97;0.60;;;5.00;99.90;;;;;;5364735;26;20014;-70
2024/04/25 05:22:57;;;;;;;3.03;0.93;;;5.10;99.90;;;;;;5367202;26;20447;-71
2024/04/25 05:25:23;;;;;;;5.72;0.50;;;5.10;99.90;;;;;;5361045;26;20459;-73
2024/04/25 05:27:51;;;;;;;4.00;0.55;;;5.20;99.90;;;;;;5368377;26;20014;-73
2024/04/25 05:30:17;;;;;;;2.60;0.70;;;5.30;99.90;;;;;;5367501;26;20036;-71
2024/04/25 05:32:43;;;;;;;1.45;0.60;;;5.40;99.90;;;;;;5363139;26;20381;-71
2024/04/25 05:35:08;;;;;;;3.22;1.15;;;5.50;99.90;;;;;;5365674;26;20005;-73
2024/04/25 05:37:34;;;;;;;4.13;1.50;;;5.50;99.90;;;;;;5338328;26;20420;-68
2024/04/25 05:39:59;;;;;;;5.82;1.05;;;5.60;99.90;;;;;;5336987;26;20008;-71
2024/04/25 05:42:25;;;;;;;11.45;2.05;;;5.70;99.90;;;;;;5365439;26;20028;-72
2024/04/25 05:44:51;;;;;;;7.45;0.98;;;5.80;99.90;;;;;;5367952;26;20007;-70
2024/04/25 05:47:18;;;;;;;4.40;0.75;;;5.90;99.90;;;;;;5366193;26;19996;-71
2024/04/25 05:49:45;;;;;;;6.43;0.88;;;6.00;99.90;;;;;;5365247;26;20403;-71
2024/04/25 05:52:12;;;;;;;7.72;2.00;;;6.10;99.90;;;;;;5367213;26;20357;-72
2024/04/25 05:54:38;;;;;;;3.30;0.93;;;6.20;99.90;;;;;;5370208;26;20452;-72
2024/04/25 05:57:04;;;;;;;2.53;1.20;;;6.40;99.90;;;;;;5366648;26;20000;-71
2024/04/25 05:59:30;;;;;;;5.13;1.50;;;6.70;99.90;;;;;;5367555;26;20008;-72
2024/04/25 06:01:55;;;;;;;5.57;0.98;;;7.20;99.90;;;;;;5364187;26;19997;-71
2024/04/25 06:04:21;;;;;;;4.30;0.70;;;7.80;99.90;;;;;;5366829;26;20032;-72
2024/04/25 06:06:46;;;;;;;4.00;0.90;;;8.20;99.90;;;;;;5367907;26;20010;-74
2024/04/25 06:09:12;;;;;;;6.22;0.70;;;8.60;99.90;;;;;;5336852;26;20617;-72
2024/04/25 06:11:37;;;;;;;2.63;0.50;;;8.80;99.90;;;;;;5369276;26;20083;-70
2024/04/25 06:14:03;;;;;;;3.03;0.70;;;8.90;99.90;;;;;;5368132;26;20004;-72
2024/04/25 06:16:28;;;;;;;2.05;0.85;;;9.00;99.90;;;;;;5368441;26;20000;-74
2024/04/25 06:18:55;;;;;;;3.97;0.70;;;9.00;99.90;;;;;;5366348;26;20043;-69
2024/04/25 06:21:20;;;;;;;3.38;0.93;;;9.20;99.90;;;;;;5368907;26;20004;-74
2024/04/25 06:23:46;;;;;;;5.40;1.45;;;9.40;99.90;;;;;;5367542;26;20085;-71
2024/04/25 06:26:11;;;;;;;3.63;0.80;;;9.40;99.90;;;;;;5368857;26;20032;-71
2024/04/25 06:28:38;;;;;;;4.43;0.75;;;9.50;99.90;;;;;;5368293;26;19996;-68
2024/04/25 06:31:04;;;;;;;4.13;0.52;;;9.20;99.90;;;;;;5367701;26;19992;-71
2024/04/25 06:33:29;;;;;;;3.92;0.70;;;9.00;99.90;;;;;;5368332;26;20004;-73
2024/04/25 06:35:55;;;;;;;3.80;0.60;;;8.80;99.90;;;;;;5367945;26;20015;-70
2024/04/25 06:38:21;;;;;;;3.88;0.80;;;8.70;99.90;;;;;;5369848;26;20000;-74
2024/04/25 06:40:49;;;;;;;2.88;0.52;;;8.60;99.90;;;;;;5368406;26;20449;-72
2024/04/25 06:43:15;;;;;;;3.10;0.70;;;8.50;99.90;;;;;;5368475;26;20357;-71
2024/04/25 06:45:40;;;;;;;6.10;1.35;;;8.40;99.90;;;;;;5368494;26;20008;-72
2024/04/25 06:48:09;;;;;;;2.00;0.65;;;8.40;99.90;;;;;;5366816;26;19996;-71
2024/04/25 06:50:35;;;;;;;3.15;1.13;;;8.40;99.90;;;;;;5368589;26;20050;-75
2024/04/25 06:53:00;;;;;;;5.13;1.75;;;8.40;99.90;;;;;;5336825;26;20004;-71
2024/04/25 06:55:27;;;;;;;5.82;0.77;;;8.30;99.90;;;;;;5369608;26;20011;-73
2024/04/25 06:57:53;;;;;;;3.92;1.10;;;8.30;99.90;;;;;;5363135;26;20750;-72
2024/04/25 07:00:19;;;;;;;6.80;1.00;;;8.40;99.90;;;;;;5368526;26;19992;-76
2024/04/25 07:02:45;;;;;;;4.32;0.80;;;8.30;99.90;;;;;;5336822;26;20079;-72
2024/04/25 07:05:10;;;;;;;10.32;1.00;;;8.30;99.90;;;;;;5365521;26;20003;-72
2024/04/25 07:07:36;;;;;;;4.88;0.98;;;8.30;99.90;;;;;;5365110;26;19996;-72
2024/04/25 07:10:02;;;;;;;3.60;0.75;;;8.30;99.90;;;;;;5361648;26;20004;-72
2024/04/25 07:12:30;;;;;;;4.45;0.85;;;8.50;99.90;;;;;;5364986;26;20011;-72
2024/04/25 07:14:56;;;;;;;2.05;0.60;;;8.90;99.90;;;;;;5329222;26;20033;-74
2024/04/25 07:17:22;;;;;;;2.70;1.15;;;9.10;99.90;;;;;;5365569;26;20007;-71
2024/04/25 07:19:49;;;;;;;6.25;1.38;;;9.40;99.90;;;;;;5367478;26;19992;-71
2024/04/25 07:22:15;;;;;;;2.88;0.60;;;9.90;99.90;;;;;;5336010;26;20001;-72
2024/04/25 07:24:41;;;;;;;5.80;0.80;;;10.10;99.90;;;;;;5331755;26;20015;-71
2024/04/25 07:27:07;;;;;;;3.25;0.85;;;10.30;99.90;;;;;;5362423;26;20477;-72
2024/04/25 07:29:33;;;;;;;1.58;0.50;;;10.20;99.90;;;;;;5363837;26;20050;-73
2024/04/25 07:31:58;;;;;;;2.00;0.77;;;10.00;99.90;;;;;;5361589;26;20000;-74
2024/04/25 07:34:24;;;;;;;1.63;0.52;;;9.80;99.90;;;;;;5364476;26;20052;-72
2024/04/25 07:36:49;;;;;;;3.70;0.60;;;9.60;99.90;;;;;;5366398;26;20004;-73
2024/04/25 07:39:15;;;;;;;3.80;0.38;;;9.50;99.90;;;;;;5364550;26;20008;-73
2024/04/25 07:41:40;;;;;;;2.90;0.68;;;9.50;99.90;;;;;;5367768;26;20007;-72
2024/04/25 07:44:06;;;;;;;3.22;0.50;;;9.60;99.90;;;;;;5366838;26;20000;-73
2024/04/25 07:46:31;;;;;;;4.85;0.75;;;9.80;99.90;;;;;;5365191;26;19996;-72
2024/04/25 07:48:57;;;;;;;2.05;0.40;;;9.80;99.90;;;;;;5359861;26;20004;-72
2024/04/25 07:51:22;;;;;;;0.98;0.22;;;9.80;99.90;;;;;;5360778;26;20000;-73
2024/04/25 07:53:48;;;;;;;1.90;0.30;;;9.80;99.90;;;;;;5364032;26;20000;-71
2024/04/25 07:56:13;;;;;;;2.30;0.77;;;9.60;99.90;;;;;;5364990;26;20000;-72
2024/04/25 07:58:39;;;;;;;1.45;0.20;;;9.50;99.90;;;;;;5368816;26;20082;-72
2024/04/25 08:01:04;;;;;;;1.60;0.30;;;9.20;99.90;;;;;;5363565;26;20004;-74
2024/04/25 08:03:30;;;;;;;1.42;0.45;;;9.00;99.90;;;;;;5367450;26;20019;-72
2024/04/25 08:05:55;;;;;;;0.90;0.30;;;8.80;99.90;;;;;;5357342;26;20011;-74
2024/04/25 08:08:22;;;;;;;4.38;0.50;;;8.70;99.90;;;;;;5364930;26;20473;-72
2024/04/25 08:10:48;;;;;;;6.70;0.55;;;8.60;99.90;;;;;;5365829;26;20019;-72
2024/04/25 08:13:15;;;;;;;3.28;0.63;;;8.60;99.90;;;;;;5362098;26;20443;-75
2024/04/25 08:15:41;;;;;;;0.95;0.20;;;8.70;99.90;;;;;;5366600;26;20373;-73
2024/04/25 08:18:07;;;;;;;1.90;0.30;;;8.70;99.90;;;;;;5367139;26;20000;-71
2024/04/25 08:20:33;;;;;;;2.80;0.20;;;8.60;99.90;;;;;;5355949;26;20036;-72
2024/04/25 08:23:00;;;;;;;1.75;0.40;;;8.60;99.90;;;;;;5369229;26;20496;-73
2024/04/25 08:25:26;;;;;;;2.25;0.40;;;8.70;99.90;;;;;;5361485;26;20016;-72
2024/04/25 08:27:52;;;;;;;2.35;0.47;;;8.70;99.90;;;;;;5365336;26;20330;-71
2024/04/25 08:30:17;;;;;;;1.20;0.28;;;8.80;99.90;;;;;;5368688;26;20514;-73
2024/04/25 08:32:43;;;;;;;2.47;0.40;;;8.80;99.90;;;;;;5369693;26;20004;-70
2024/04/25 08:35:09;;;;;;;4.32;0.77;;;8.90;99.90;;;;;;5367868;26;20004;-68
2024/04/25 08:37:35;;;;;;;2.28;0.50;;;9.00;99.90;;;;;;5371116;26;20023;-72
2024/04/25 08:40:01;;;;;;;2.92;0.82;;;9.00;99.90;;;;;;5364603;26;20040;-73
2024/04/25 08:42:26;;;;;;;1.42;0.45;;;9.00;99.90;;;;;;5369696;26;20004;-73
2024/04/25 08:44:52;;;;;;;3.55;0.40;;;9.10;99.90;;;;;;5366441;26;20408;-72
2024/04/25 08:47:19;;;;;;;2.22;0.32;;;9.20;99.90;;;;;;5363837;26;20103;-72
2024/04/25 08:49:47;;;;;;;2.58;0.50;;;9.30;99.90;;;;;;5370180;26;20049;-72
2024/04/25 08:52:15;;;;;;;3.35;0.52;;;9.50;99.90;;;;;;5368939;26;20085;-73
2024/04/25 08:54:42;;;;;;;4.18;0.60;;;9.60;99.90;;;;;;5339394;26;20457;-73
2024/04/25 08:57:07;;;;;;;2.97;0.77;;;9.50;99.90;;;;;;5364348;26;20027;-71
2024/04/25 08:59:33;;;;;;;5.82;1.40;;;9.30;99.90;;;;;;5336157;26;19997;-72
2024/04/25 09:01:59;;;;;;;1.38;0.45;;;9.20;99.90;;;;;;5369058;26;20012;-75
2024/04/25 09:04:27;;;;;;;2.67;0.45;;;8.70;99.90;;;;;;5368862;26;20015;-71
2024/04/25 09:06:53;;;;;;;4.05;0.32;;;8.30;99.90;;;;;;5369528;26;19996;-72
2024/04/25 09:09:20;;;;;;;3.13;0.70;;;8.00;99.90;;;;;;5364632;26;20012;-72
2024/04/25 09:11:53;;;;;;;3.72;0.40;;;7.80;99.90;;;;;;5368635;26;20472;-72
2024/04/25 09:14:19;;;;;;;2.03;1.13;;;7.80;99.90;;;;;;5366780;26;20047;-72
2024/04/25 09:16:45;;;;;;;1.65;0.65;;;7.80;99.90;;;;;;5337793;26;20065;-73
2024/04/25 09:19:12;;;;;;;1.42;0.50;;;7.90;99.90;;;;;;5337894;26;20453;-72
2024/04/25 09:21:38;;;;;;;4.38;0.75;;;8.10;99.90;;;;;;5338049;26;20000;-72
2024/04/25 09:24:06;;;;;;;4.43;0.40;;;8.30;99.90;;;;;;5369683;26;20004;-72
2024/04/25 09:26:33;;;;;;;1.27;0.32;;;8.30;99.90;;;;;;5339091;26;20008;-72
2024/04/25 09:28:59;;;;;;;2.97;0.68;;;8.30;99.90;;;;;;5364107;26;20000;-72
2024/04/25 09:31:25;;;;;;;6.90;0.75;;;8.30;99.90;;;;;;5369408;26;19996;-73
2024/04/25 09:33:56;;;;;;;5.28;1.20;;;8.10;99.90;;;;;;5334671;26;20343;-72
2024/04/25 09:36:22;;;;;;;1.35;0.38;;;8.00;99.90;;;;;;5369088;26;20014;-74
2024/04/25 09:38:48;;;;;;;2.45;0.85;;;8.00;99.90;;;;;;5366808;26;20131;-73
2024/04/25 09:41:14;;;;;;;3.70;0.57;;;8.10;99.90;;;;;;5368201;26;20481;-72
2024/04/25 09:43:41;;;;;;;1.63;0.30;;;8.10;99.90;;;;;;5364640;26;20000;-73
2024/04/25 09:46:12;;;;;;;4.15;0.50;;;8.10;99.90;;;;;;5335148;26;20022;-73
2024/04/25 09:48:42;;;;;;;1.25;0.50;;;8.20;99.90;;;;;;5368564;26;20345;-71
2024/04/25 09:51:28;;;;;;;3.30;0.70;;;8.20;99.90;;;;;;5366537;26;20520;-72
2024/04/25 09:54:09;;;;;;;4.65;0.60;;;8.20;99.90;;;;;;5370789;26;20073;-74
2024/04/25 09:56:37;;;;;;;4.97;0.80;;;8.10;99.90;;;;;;5367239;26;20014;-72
2024/04/25 09:59:35;;;;;;;2.60;0.52;;;8.10;99.90;;;;;;5367914;26;20011;-73
2024/04/25 10:02:03;;;;;;;5.25;1.00;;;8.00;99.90;;;;;;5365225;26;20010;-73
2024/04/25 10:04:31;;;;;;;3.70;1.17;;;7.80;99.90;;;;;;5329976;26;20016;-73
2024/04/25 10:06:59;;;;;;;2.20;0.57;;;7.60;99.90;;;;;;5357379;26;20825;-73
2024/04/25 10:09:24;;;;;;;7.35;0.90;;;7.50;99.90;;;;;;5353695;26;20001;-71
2024/04/25 10:11:50;;;;;;;4.40;1.05;;;7.50;99.90;;;;;;5354677;26;20020;-71
2024/04/25 10:14:26;;;;;;;4.50;1.13;;;7.50;99.90;;;;;;5359265;26;20000;-71
2024/04/25 10:16:52;;;;;;;3.47;0.65;;;7.50;99.90;;;;;;5357376;26;20361;-70
2024/04/25 10:19:17;;;;;;;3.53;1.25;;;7.40;99.90;;;;;;5352775;26;20000;-72
2024/04/25 10:21:46;;;;;;;3.42;0.70;;;7.20;99.90;;;;;;5358411;26;20472;-72
2024/04/25 10:24:15;;;;;;;3.30;1.02;;;7.20;99.90;;;;;;5358497;26;20012;-72
2024/04/25 10:26:46;;;;;;;4.63;1.08;;;7.20;99.90;;;;;;5355361;26;20005;-71
2024/04/25 10:29:12;;;;;;;8.70;0.80;;;7.10;99.90;;;;;;5357510;26;20004;-72
2024/04/25 10:31:39;;;;;;;5.82;1.13;;;7.10;99.90;;;;;;5358750;26;20001;-72
2024/04/25 10:34:07;;;;;;;2.88;0.77;;;7.20;99.90;;;;;;5356927;26;20012;-72
2024/04/25 10:36:33;;;;;;;2.33;0.60;;;7.20;99.90;;;;;;5353509;26;20119;-72
2024/04/25 10:38:59;;;;;;;9.02;0.90;;;7.20;99.90;;;;;;5359082;26;20012;-72
2024/04/25 10:41:36;;;;;;;2.15;0.90;;;7.30;99.90;;;;;;5351631;26;20001;-69
2024/04/25 10:44:02;;;;;;;2.72;0.85;;;7.30;99.90;;;;;;5358483;26;20905;-72
2024/04/25 10:46:28;;;;;;;3.75;0.77;;;7.30;99.90;;;;;;5347135;26;20041;-71
2024/04/25 10:48:54;;;;;;;5.30;1.02;;;7.40;99.90;;;;;;5356622;26;20019;-72
2024/04/25 10:51:20;;;;;;;4.07;0.80;;;7.40;99.90;;;;;;5353712;26;20056;-71
2024/04/25 10:53:46;;;;;;;3.25;1.00;;;7.60;99.90;;;;;;5366091;26;20058;-72
2024/04/25 10:56:13;;;;;;;1.60;0.40;;;7.70;99.90;;;;;;5325923;26;20004;-72
2024/04/25 10:58:47;;;;;;;5.78;1.10;;;7.80;99.90;;;;;;5341594;26;20019;-73
2024/04/25 11:01:30;;;;;;;4.38;1.20;;;7.90;99.90;;;;;;5351924;26;20051;-72
2024/04/25 11:04:02;;;;;;;2.55;0.40;;;8.00;99.90;;;;;;5357751;26;20042;-72
2024/04/25 11:06:31;;;;;;;4.15;0.82;;;8.10;99.90;;;;;;5365614;26;20000;-72
2024/04/25 11:08:57;;;;;;;2.75;0.55;;;8.20;99.90;;;;;;5356660;26;20398;-73
2024/04/25 11:11:23;;;;;;;2.83;1.17;;;8.40;99.90;;;;;;5350191;26;20012;-72
2024/04/25 11:13:49;;;;;;;3.90;0.70;;;8.60;99.90;;;;;;5358541;26;20024;-70
2024/04/25 11:16:16;;;;;;;2.92;0.90;;;8.80;99.90;;;;;;5362385;26;19996;-72
2024/04/25 11:18:43;;;;;;;4.10;1.30;;;9.10;99.90;;;;;;5363734;26;20012;-72
2024/04/25 11:21:09;;;;;;;8.18;1.45;;;9.30;99.90;;;;;;5370446;26;20005;-71
2024/04/25 11:23:35;;;;;;;1.83;0.77;;;9.50;99.90;;;;;;5372716;26;20005;-71
2024/04/25 11:26:02;;;;;;;3.75;1.08;;;9.80;99.90;;;;;;5367249;26;20029;-72
2024/04/25 11:28:31;;;;;;;2.92;0.90;;;9.90;99.90;;;;;;5371185;26;20008;-71
2024/04/25 11:30:58;;;;;;;3.25;0.60;;;10.00;99.90;;;;;;5361929;26;20534;-73
2024/04/25 11:33:25;;;;;;;3.95;0.77;;;10.10;99.90;;;;;;5353392;26;20004;-73
2024/04/25 11:35:51;;;;;;;3.83;0.70;;;10.30;99.90;;;;;;5361134;26;20032;-72
2024/04/25 11:38:17;;;;;;;2.60;0.85;;;10.40;99.90;;;;;;5357068;26;20011;-73
2024/04/25 11:40:44;;;;;;;3.63;0.73;;;10.50;99.90;;;;;;5341912;26;20028;-73
2024/04/25 11:43:17;;;;;;;5.28;1.35;;;10.60;99.90;;;;;;5348890;26;20406;-73
2024/04/25 11:45:45;;;;;;;5.05;0.80;;;10.80;99.90;;;;;;5356293;26;20828;-71
2024/04/25 11:48:17;;;;;;;4.97;0.73;;;10.90;99.90;;;;;;5357711;26;20043;-73
2024/04/25 11:50:44;;;;;;;6.25;0.73;;;11.20;99.90;;;;;;5356191;26;19997;-72
2024/04/25 11:53:09;;;;;;;3.50;1.25;;;11.20;99.90;;;;;;5365204;26;20000;-73
2024/04/25 11:55:36;;;;;;;2.33;0.70;;;11.30;99.90;;;;;;5360736;26;20086;-73
2024/04/25 11:58:02;;;;;;;1.38;0.75;;;11.30;99.90;;;;;;5353485;26;20017;-72
2024/04/25 12:00:27;;;;;;;1.75;0.52;;;11.30;99.90;;;;;;5329346;26;20077;-72
2024/04/25 12:02:53;;;;;;;4.65;1.00;;;11.40;99.90;;;;;;5354833;26;20017;-72
2024/04/25 12:05:19;;;;;;;3.15;0.50;;;11.40;99.90;;;;;;5353525;26;20027;-72
2024/04/25 12:07:44;;;;;;;4.90;0.82;;;11.40;99.90;;;;;;5365061;26;20009;-72
2024/04/25 12:10:10;;;;;;;5.35;0.90;;;11.40;99.90;;;;;;5358930;26;20000;-73
2024/04/25 12:12:36;;;;;;;4.50;1.30;;;11.40;99.90;;;;;;5356568;26;20004;-73
2024/04/25 12:15:03;;;;;;;2.92;1.40;;;11.40;99.90;;;;;;5325463;26;20008;-73
2024/04/25 12:17:29;;;;;;;1.55;0.50;;;11.30;99.90;;;;;;5328086;26;20009;-73
2024/04/25 12:19:55;;;;;;;9.25;1.38;;;11.40;99.90;;;;;;5354636;26;20750;-72
2024/04/25 12:22:20;;;;;;;2.20;0.70;;;11.40;99.90;;;;;;5357565;26;20076;-73
2024/04/25 12:24:46;;;;;;;2.13;0.60;;;11.30;99.90;;;;;;5362186;26;20019;-72
2024/04/25 12:27:11;;;;;;;5.53;0.93;;;11.30;99.90;;;;;;5358798;26;20011;-73
2024/04/25 12:29:37;;;;;;;4.45;0.68;;;11.20;99.90;;;;;;5357958;26;20335;-73
2024/04/25 12:32:04;;;;;;;2.10;0.65;;;11.20;99.90;;;;;;5350652;26;20013;-73
2024/04/25 12:34:30;;;;;;;2.88;0.85;;;11.30;99.90;;;;;;5358083;26;20410;-72
2024/04/25 12:36:55;;;;;;;3.97;0.60;;;11.30;99.90;;;;;;5350040;26;20001;-73
2024/04/25 12:39:21;;;;;;;6.25;0.98;;;11.30;99.90;;;;;;5362206;26;20004;-73
2024/04/25 12:41:47;;;;;;;4.53;0.85;;;11.30;99.90;;;;;;5320612;26;20033;-72
2024/04/25 12:44:13;;;;;;;5.35;1.10;;;11.30;99.90;;;;;;5363461;26;20015;-73
2024/04/25 12:46:41;;;;;;;4.22;1.05;;;11.30;99.90;;;;;;5353823;26;20004;-73
2024/04/25 12:49:07;;;;;;;3.15;0.77;;;11.40;99.90;;;;;;5357857;26;20005;-73
2024/04/25 12:51:32;;;;;;;3.13;0.93;;;11.50;99.90;;;;;;5356630;26;20028;-71
2024/04/25 12:53:57;;;;;;;4.75;1.27;;;11.50;99.90;;;;;;5361925;26;20023;-73
2024/04/25 12:56:24;;;;;;;5.18;1.10;;;11.70;99.90;;;;;;5328482;26;21049;-73